Time;durP1;ratioP1;P1;durP2;ratioP2;P2;SDS_P1;SDS_P2;PMS_P1;PMS_P2;Temp;Humidity;BMP_temperature;BMP_pressure;BME280_temperature;BME280_humidity;BME280_pressure;Samples;Min_cycle;Max_cycle;Signal;HPM_P1;HPM_P2
2023/06/10 00:00:51;;;;;;;13.93;11.27;;;24.70;99.90;;;25.05;53.91;101314.34;4937442;29;20051;-65
2023/06/10 00:03:23;;;;;;;12.82;10.73;;;24.60;99.90;;;25.03;53.97;101316.28;4937730;29;20142;-66
2023/06/10 00:05:53;;;;;;;12.63;10.38;;;24.60;99.90;;;24.96;54.09;101316.72;4937480;29;20046;-66
2023/06/10 00:08:22;;;;;;;14.25;10.80;;;24.60;99.90;;;24.81;54.68;101321.16;4937276;29;20493;-65
2023/06/10 00:10:50;;;;;;;12.15;10.90;;;24.40;99.90;;;24.90;54.64;101319.75;4937263;29;20142;-65
2023/06/10 00:13:19;;;;;;;14.50;11.35;;;24.40;99.90;;;24.89;54.34;101324.28;4937142;29;20119;-66
2023/06/10 00:15:47;;;;;;;12.77;11.50;;;24.50;99.90;;;24.85;54.64;101327.28;4934044;29;20138;-65
2023/06/10 00:18:17;;;;;;;15.23;11.32;;;24.40;99.90;;;24.78;54.69;101323.16;4937221;29;20048;-65
2023/06/10 00:20:54;;;;;;;11.63;10.40;;;24.40;99.90;;;24.61;54.71;101321.38;4944081;29;20044;-65
2023/06/10 00:23:24;;;;;;;14.63;11.55;;;24.20;99.90;;;24.58;54.79;101328.78;4936020;29;20118;-64
2023/06/10 00:25:53;;;;;;;14.48;10.57;;;24.20;99.90;;;24.59;55.26;101325.97;4936895;29;20104;-65
2023/06/10 00:28:22;;;;;;;13.32;11.30;;;24.20;99.90;;;24.58;55.26;101317.97;4937117;29;20150;-67
2023/06/10 00:30:50;;;;;;;12.70;11.48;;;24.10;99.90;;;24.48;55.34;101322.13;4945028;29;20048;-65
2023/06/10 00:33:18;;;;;;;12.52;11.25;;;24.10;99.90;;;24.41;54.82;101321.56;4936625;29;20081;-65
2023/06/10 00:35:47;;;;;;;12.27;10.90;;;24.00;99.90;;;24.37;55.44;101313.72;4943707;28;20056;-65
2023/06/10 00:38:16;;;;;;;12.57;11.32;;;24.00;99.90;;;24.31;55.43;101314.06;4935601;29;20067;-65
2023/06/10 00:40:45;;;;;;;14.63;11.60;;;23.90;99.90;;;24.28;55.23;101322.31;4936675;29;20501;-66
2023/06/10 00:43:13;;;;;;;11.52;10.30;;;23.90;99.90;;;24.24;55.42;101316.19;4936574;29;20532;-66
2023/06/10 00:45:42;;;;;;;13.00;10.82;;;23.80;99.90;;;24.26;55.54;101318.81;4935301;29;20095;-65
2023/06/10 00:48:11;;;;;;;11.43;10.27;;;23.80;99.90;;;24.22;55.48;101315.41;4936439;29;20155;-65
2023/06/10 00:50:40;;;;;;;12.10;10.52;;;23.80;99.90;;;24.07;55.55;101303.59;4936654;29;20043;-66
2023/06/10 00:53:09;;;;;;;14.25;10.80;;;23.70;99.90;;;24.14;55.36;101321.22;4936350;29;20060;-66
2023/06/10 00:55:40;;;;;;;14.02;10.77;;;23.70;99.90;;;24.11;55.15;101321.41;4945126;29;20056;-65
2023/06/10 00:58:10;;;;;;;12.30;11.10;;;23.70;99.90;;;24.08;55.45;101326.94;4936394;29;20086;-66
2023/06/10 01:00:38;;;;;;;14.30;10.70;;;23.70;99.90;;;24.04;55.25;101328.06;4943237;29;20051;-65
2023/06/10 01:03:07;;;;;;;13.65;10.90;;;23.70;99.90;;;23.80;55.47;101317.63;4936329;29;20040;-65
2023/06/10 01:05:37;;;;;;;12.80;10.73;;;23.50;99.90;;;23.26;55.92;101213.28;4927457;29;20159;-65
2023/06/10 01:08:29;;;;;;;13.70;10.57;;;23.50;99.90;;;23.82;56.00;101327.44;4936227;29;20417;-65
2023/06/10 01:11:03;;;;;;;12.10;10.90;;;23.40;99.90;;;23.80;55.95;101318.53;4934916;29;20082;-65
2023/06/10 01:13:32;;;;;;;12.23;10.98;;;23.40;99.90;;;23.80;55.74;101317.63;4935973;29;20058;-65
2023/06/10 01:16:01;;;;;;;12.93;10.88;;;23.40;99.90;;;23.82;55.67;101316.63;4932498;29;20052;-66
2023/06/10 01:18:32;;;;;;;13.48;10.20;;;23.40;99.90;;;23.84;55.68;101317.41;4936082;29;20055;-66
2023/06/10 01:21:00;;;;;;;;;;;23.50;99.90;;;23.85;55.55;101332.66;4936394;29;20052;-67
2023/06/10 01:23:30;;;;;;;13.63;10.25;;;23.50;99.90;;;23.86;55.33;101323.63;4935926;29;19970;-66
2023/06/10 01:26:03;;;;;;;14.77;11.07;;;23.50;99.90;;;23.13;55.13;101217.56;4935900;29;20048;-65
2023/06/10 01:28:40;;;;;;;12.15;10.35;;;23.40;99.90;;;23.81;55.30;101332.91;4935815;29;20043;-66
2023/06/10 01:31:21;;;;;;;15.70;10.77;;;23.30;99.90;;;23.74;55.16;101326.06;4945336;29;20044;-66
2023/06/10 01:33:53;;;;;;;14.18;10.25;;;23.40;99.90;;;23.60;55.45;101323.19;4935762;29;20404;-65
2023/06/10 01:36:25;;;;;;;11.80;10.60;;;23.20;99.90;;;23.44;56.09;101325.78;4923626;29;20048;-66
2023/06/10 01:38:56;;;;;;;13.57;9.98;;;23.00;99.90;;;23.49;55.88;101323.75;4926924;29;20130;-67
2023/06/10 01:41:25;;;;;;;13.23;9.95;;;23.10;99.90;;;23.37;55.96;101313.53;4934478;29;20047;-66
2023/06/10 01:43:56;;;;;;;13.35;10.50;;;23.00;99.90;;;23.39;55.99;101318.84;4935584;29;20519;-66
2023/06/10 01:46:24;;;;;;;;;;;22.90;99.90;;;23.41;56.16;101314.25;4934536;29;20048;-66
2023/06/10 01:48:53;;;;;;;16.75;10.23;;;23.00;99.90;;;23.30;55.79;101312.06;4926337;29;19933;-66
2023/06/10 01:51:21;;;;;;;13.68;9.85;;;22.90;99.90;;;23.26;56.11;101307.78;4935663;29;20405;-65
2023/06/10 01:53:50;;;;;;;14.60;10.45;;;22.90;99.90;;;23.32;55.83;101314.72;4935426;29;20131;-66
2023/06/10 01:56:20;;;;;;;13.73;10.30;;;22.90;99.90;;;23.36;55.95;101321.72;4931867;29;20424;-66
2023/06/10 01:58:48;;;;;;;14.27;10.60;;;23.00;99.90;;;23.27;55.87;101315.78;4934234;29;20146;-66
2023/06/10 02:01:17;;;;;;;13.50;10.60;;;22.90;99.90;;;23.32;56.05;101321.00;4934090;29;20135;-66
2023/06/10 02:03:46;;;;;;;16.02;9.90;;;22.90;99.90;;;23.30;55.84;101317.47;4935584;29;20115;-65
2023/06/10 02:06:14;;;;;;;14.95;9.88;;;22.90;99.90;;;23.33;55.80;101322.75;4935482;29;20051;-65
2023/06/10 02:08:43;;;;;;;14.73;10.02;;;22.90;99.90;;;23.35;55.72;101326.25;4933962;29;20048;-65
2023/06/10 02:11:11;;;;;;;14.32;10.40;;;22.90;99.90;;;23.31;55.80;101319.25;4926471;29;20524;-65
2023/06/10 02:13:41;;;;;;;13.30;9.90;;;22.90;99.90;;;23.09;55.41;101294.25;4935163;29;20076;-65
2023/06/10 02:16:12;;;;;;;13.03;10.37;;;22.90;99.90;;;23.19;55.49;101326.09;4922633;29;20062;-66
2023/06/10 02:18:44;;;;;;;11.75;10.00;;;22.80;99.90;;;23.20;55.97;101321.56;4932248;29;20618;-65
2023/06/10 02:21:12;;;;;;;14.00;9.25;;;22.80;99.90;;;23.07;55.59;101321.28;4933998;29;20048;-65
2023/06/10 02:23:40;;;;;;;11.68;9.50;;;22.70;99.90;;;23.08;55.90;101322.16;4935148;29;20505;-66
2023/06/10 02:26:09;;;;;;;17.05;10.70;;;22.70;99.90;;;23.00;55.80;101317.16;4935050;29;20055;-65
2023/06/10 02:28:37;;;;;;;16.38;9.93;;;22.60;99.90;;;22.83;56.03;101318.91;4935389;29;20123;-66
2023/06/10 02:31:08;;;;;;;13.02;9.80;;;22.50;99.90;;;22.87;55.95;101329.50;4935364;29;20489;-66
2023/06/10 02:33:39;;;;;;;14.00;10.30;;;22.40;99.90;;;22.70;56.31;101321.31;4935160;29;20059;-66
2023/06/10 02:36:08;;;;;;;12.45;9.25;;;22.30;99.90;;;22.74;56.44;101322.94;4922990;29;20056;-66
2023/06/10 02:38:37;;;;;;;12.55;10.32;;;22.30;99.90;;;22.53;56.39;101323.03;4941938;28;20556;-66
2023/06/10 02:41:05;;;;;;;13.27;9.80;;;22.20;99.90;;;22.62;56.65;101328.00;4933937;29;20172;-65
2023/06/10 02:43:34;;;;;;;14.57;10.07;;;22.20;99.90;;;22.60;56.47;101321.81;4926295;29;20469;-66
2023/06/10 02:46:03;;;;;;;13.88;10.02;;;22.20;99.90;;;22.44;56.67;101327.88;4933723;29;20048;-66
2023/06/10 02:48:43;;;;;;;12.45;10.40;;;22.10;99.90;;;22.45;57.19;101323.38;4942158;29;20442;-65
2023/06/10 02:51:13;;;;;;;13.10;9.63;;;22.00;99.90;;;22.47;56.80;101326.88;4930953;29;20055;-66
2023/06/10 02:53:46;;;;;;;13.18;9.80;;;22.10;99.90;;;22.51;56.72;101327.59;4933827;29;20099;-65
2023/06/10 02:56:18;;;;;;;13.48;9.85;;;22.00;99.90;;;22.57;56.58;101327.38;4926140;29;20051;-65
2023/06/10 02:58:46;;;;;;;12.20;9.82;;;22.10;99.90;;;22.48;56.45;101323.22;4935063;29;20103;-65
2023/06/10 03:01:17;;;;;;;12.90;9.93;;;22.10;99.90;;;22.45;56.93;101321.53;4938536;29;20048;-65
2023/06/10 03:03:58;;;;;;;15.77;9.93;;;22.00;99.90;;;22.52;56.93;101322.13;4935033;29;20102;-65
2023/06/10 03:06:27;;;;;;;15.05;10.18;;;22.10;99.90;;;22.48;56.62;101322.34;4937240;29;20055;-64
2023/06/10 03:09:06;;;;;;;11.15;9.32;;;22.10;99.90;;;22.51;56.66;101320.41;4937164;29;20043;-65
2023/06/10 03:11:35;;;;;;;12.88;10.60;;;22.10;99.90;;;22.39;56.80;101324.53;4941891;29;20068;-65
2023/06/10 03:14:03;;;;;;;14.98;9.93;;;22.00;99.90;;;22.41;57.02;101324.47;4945265;29;20055;-65
2023/06/10 03:16:33;;;;;;;13.75;10.15;;;22.00;99.90;;;22.35;56.97;101324.75;4936811;29;20067;-64
2023/06/10 03:19:03;;;;;;;13.85;9.98;;;21.90;99.90;;;22.30;57.34;101332.16;4937043;29;20055;-64
2023/06/10 03:21:32;;;;;;;11.75;9.88;;;21.90;99.90;;;22.25;57.05;101329.69;4937308;29;20057;-65
2023/06/10 03:24:01;;;;;;;13.52;10.50;;;21.90;99.90;;;22.16;57.18;101332.75;4945154;28;20060;-65
2023/06/10 03:26:30;;;;;;;10.48;9.40;;;21.80;99.90;;;22.26;57.28;101334.09;4936979;29;20082;-65
2023/06/10 03:28:59;;;;;;;14.60;10.25;;;21.90;99.90;;;22.16;57.44;101330.06;4936946;29;20576;-67
2023/06/10 03:31:27;;;;;;;16.02;9.23;;;21.80;99.90;;;22.12;57.11;101331.19;4934247;29;20074;-65
2023/06/10 03:33:58;;;;;;;11.43;9.93;;;21.70;99.90;;;22.21;57.37;101337.97;4930561;29;20072;-65
2023/06/10 03:36:29;;;;;;;16.73;9.98;;;21.80;99.90;;;22.27;57.14;101348.47;4937957;29;20060;-65
2023/06/10 03:38:58;;;;;;;10.88;9.40;;;21.80;99.90;;;22.17;56.94;101341.72;4936798;29;20573;-65
2023/06/10 03:41:27;;;;;;;17.67;9.85;;;21.80;99.90;;;22.21;56.98;101349.63;4936680;29;20051;-64
2023/06/10 03:43:55;;;;;;;12.57;9.00;;;21.80;99.90;;;22.24;57.07;101345.94;4937972;29;20189;-65
2023/06/10 03:46:24;;;;;;;13.73;9.38;;;21.80;99.90;;;22.19;57.00;101347.94;4936533;29;20461;-65
2023/06/10 03:48:53;;;;;;;11.27;9.25;;;21.80;99.90;;;22.17;56.99;101353.41;4937806;29;20051;-64
2023/06/10 03:51:21;;;;;;;13.80;9.55;;;21.80;99.90;;;22.17;56.87;101353.41;4933430;29;20146;-65
2023/06/10 03:53:52;;;;;;;14.25;8.85;;;21.80;99.90;;;22.08;56.58;101353.81;4917472;29;20099;-65
2023/06/10 03:56:20;;;;;;;12.40;9.47;;;21.70;99.90;;;22.08;56.95;101352.94;4936397;29;20052;-64
2023/06/10 03:58:48;;;;;;;14.60;9.25;;;21.70;99.90;;;21.99;56.63;101354.19;4936348;29;20299;-64
2023/06/10 04:01:20;;;;;;;11.43;9.48;;;21.70;99.90;;;21.98;56.71;101356.97;4936266;29;20058;-65
2023/06/10 04:03:51;;;;;;;14.90;9.88;;;21.60;99.90;;;21.96;56.42;101354.34;4928533;29;20147;-65
2023/06/10 04:06:19;;;;;;;16.05;9.85;;;21.60;99.90;;;21.97;56.59;101349.84;4937324;29;20058;-64
2023/06/10 04:08:47;;;;;;;12.80;8.77;;;21.50;99.90;;;21.94;56.89;101356.22;4936192;29;20075;-64
2023/06/10 04:11:17;;;;;;;16.45;9.57;;;21.50;99.90;;;22.01;56.78;101352.31;4936677;29;20469;-65
2023/06/10 04:13:47;;;;;;;14.70;9.48;;;21.60;99.90;;;21.93;56.38;101361.69;4937548;29;20067;-64
2023/06/10 04:16:15;;;;;;;11.63;9.60;;;21.60;99.90;;;21.79;56.87;101359.56;4935732;29;20079;-65
2023/06/10 04:18:44;;;;;;;15.05;9.68;;;21.40;99.90;;;21.63;56.86;101328.81;4928135;29;20074;-64
2023/06/10 04:21:13;;;;;;;16.23;9.60;;;21.40;99.90;;;21.76;56.89;101362.34;4937503;29;20039;-65
2023/06/10 04:23:41;;;;;;;14.68;9.75;;;21.30;99.90;;;21.07;57.29;101245.06;4935956;29;20438;-64
2023/06/10 04:26:11;;;;;;;11.20;9.43;;;21.40;99.90;;;21.76;57.13;101353.41;4935663;29;20055;-64
2023/06/10 04:28:43;;;;;;;12.27;9.38;;;21.40;99.90;;;21.86;56.89;101370.97;4928085;29;20051;-64
2023/06/10 04:31:12;;;;;;;15.10;10.02;;;21.50;99.90;;;21.81;56.75;101373.88;4935657;29;20059;-64
2023/06/10 04:33:42;;;;;;;13.20;10.07;;;21.50;99.90;;;21.82;57.16;101377.41;4944052;29;20130;-65
2023/06/10 04:36:11;;;;;;;14.27;9.77;;;21.40;99.90;;;21.89;56.80;101381.63;4935678;29;20052;-64
2023/06/10 04:38:40;;;;;;;13.68;9.98;;;21.50;99.90;;;21.84;56.74;101379.13;4936823;29;20055;-66
2023/06/10 04:41:09;;;;;;;11.60;9.23;;;21.50;99.90;;;21.48;57.28;101314.19;4935483;29;20107;-66
2023/06/10 04:43:38;;;;;;;13.73;9.70;;;21.40;99.90;;;21.76;57.02;101381.22;4936577;29;20078;-64
2023/06/10 04:46:08;;;;;;;14.23;9.52;;;21.40;99.90;;;21.85;57.21;101383.56;4935457;29;20075;-64
2023/06/10 04:48:37;;;;;;;;;;;21.50;99.90;;;21.86;57.23;101393.38;4924708;29;20067;-66
2023/06/10 04:51:06;;;;;;;14.07;9.95;;;21.50;99.90;;;21.87;57.16;101381.69;4935324;29;19939;-66
2023/06/10 04:53:34;;;;;;;12.13;9.38;;;21.50;99.90;;;21.98;57.37;101387.47;4944844;29;20044;-66
2023/06/10 04:56:03;;;;;;;13.00;9.80;;;21.60;99.90;;;21.93;56.97;101389.47;4936274;29;20449;-66
2023/06/10 04:58:31;;;;;;;15.45;10.90;;;21.60;99.90;;;21.88;57.10;101386.13;4936316;29;20048;-66
2023/06/10 05:00:59;;;;;;;15.55;9.20;;;21.50;99.90;;;22.00;57.24;101387.41;4936331;29;20065;-64
2023/06/10 05:03:29;;;;;;;15.15;9.68;;;21.50;99.90;;;22.07;57.22;101386.19;4936214;29;20054;-66
2023/06/10 05:05:58;;;;;;;13.95;10.00;;;21.60;99.90;;;22.08;56.81;101383.47;4936204;29;20048;-66
2023/06/10 05:08:26;;;;;;;14.65;10.10;;;21.70;99.90;;;22.05;56.74;101380.00;4943213;29;20048;-66
2023/06/10 05:10:55;;;;;;;11.27;9.95;;;21.70;99.90;;;22.14;56.94;101383.16;4935964;29;20493;-66
2023/06/10 05:13:23;;;;;;;12.80;10.10;;;21.70;99.90;;;22.03;57.25;101376.50;4936114;29;20055;-65
2023/06/10 05:15:52;;;;;;;13.13;9.82;;;21.70;99.90;;;22.11;57.22;101385.13;4935966;29;20062;-64
2023/06/10 05:18:21;;;;;;;13.55;9.70;;;21.70;99.90;;;21.55;57.50;101293.25;4932525;29;20122;-65
2023/06/10 05:20:51;;;;;;;14.52;9.88;;;21.70;99.90;;;22.11;57.79;101383.31;4934749;29;20142;-65
2023/06/10 05:23:19;;;;;;;14.45;10.27;;;21.70;99.90;;;22.16;57.65;101375.88;4934927;29;20047;-64
2023/06/10 05:25:47;;;;;;;13.30;9.07;;;21.80;99.90;;;22.23;57.39;101384.59;4935913;29;20043;-66
2023/06/10 05:28:16;;;;;;;12.90;9.50;;;21.80;99.90;;;22.10;57.79;101384.28;4935823;29;20052;-64
2023/06/10 05:30:45;;;;;;;14.60;9.43;;;21.80;99.90;;;22.14;57.71;101385.84;4935948;29;20046;-65
2023/06/10 05:33:13;;;;;;;14.55;10.07;;;21.80;99.90;;;22.18;58.23;101383.94;4935722;29;20151;-65
2023/06/10 05:35:42;;;;;;;11.30;9.25;;;21.80;99.90;;;21.79;59.09;101375.72;4935559;29;20047;-64
2023/06/10 05:38:11;;;;;;;12.45;10.00;;;21.50;99.90;;;21.98;59.07;101389.28;4935627;29;20058;-66
2023/06/10 05:40:40;;;;;;;14.73;10.27;;;21.50;99.90;;;21.80;59.38;101384.66;4915744;29;20442;-66
2023/06/10 05:43:09;;;;;;;13.07;10.65;;;21.40;99.90;;;21.84;60.07;101378.22;4934459;29;20288;-66
2023/06/10 05:45:40;;;;;;;15.05;10.02;;;21.40;99.90;;;21.79;60.11;101361.38;4935536;29;20051;-65
2023/06/10 05:48:08;;;;;;;13.48;9.98;;;21.50;99.90;;;21.69;60.29;101385.13;4935487;29;20061;-65
2023/06/10 05:50:39;;;;;;;16.60;10.75;;;21.30;99.90;;;21.94;59.56;101388.56;4935453;29;20052;-67
2023/06/10 05:53:14;;;;;;;17.50;10.93;;;21.50;99.90;;;21.89;60.50;101385.16;4935574;29;20052;-66
2023/06/10 05:55:45;;;;;;;11.68;9.93;;;21.50;99.90;;;21.58;61.86;101378.44;4932206;29;20568;-66
2023/06/10 05:58:15;;;;;;;13.68;9.80;;;21.20;99.90;;;21.45;61.63;101372.66;4935616;29;20062;-64
2023/06/10 06:00:43;;;;;;;12.45;9.90;;;21.30;99.90;;;21.58;61.24;101387.41;4935444;29;20052;-64
2023/06/10 06:03:13;;;;;;;17.17;10.15;;;21.20;99.90;;;21.78;60.51;101395.50;4935368;29;20039;-64
2023/06/10 06:05:42;;;;;;;13.13;10.35;;;21.30;99.90;;;21.85;60.94;101394.34;4935507;29;20446;-65
2023/06/10 06:08:13;;;;;;;15.07;10.52;;;21.40;99.90;;;21.74;60.34;101401.94;4935409;29;20043;-64
2023/06/10 06:10:41;;;;;;;14.45;10.05;;;21.40;99.90;;;21.64;62.08;101395.19;4935411;29;20062;-65
2023/06/10 06:13:11;;;;;;;15.25;10.90;;;21.20;99.90;;;21.71;60.78;101388.63;4935349;29;20091;-64
2023/06/10 06:15:40;;;;;;;16.77;10.63;;;21.30;99.90;;;21.64;62.44;101395.19;4935193;29;20059;-64
2023/06/10 06:18:08;;;;;;;18.45;9.88;;;21.30;99.90;;;22.03;61.10;101396.22;4935256;29;20052;-64
2023/06/10 06:20:37;;;;;;;17.27;10.48;;;21.50;99.90;;;21.94;61.14;101399.34;4935308;29;20044;-64
2023/06/10 06:23:05;;;;;;;13.38;9.73;;;21.50;99.90;;;22.13;60.28;101389.50;4935187;29;20476;-64
2023/06/10 06:25:35;;;;;;;15.07;10.23;;;21.70;99.90;;;22.14;60.15;101401.19;4926233;29;20082;-64
2023/06/10 06:28:03;;;;;;;17.00;10.98;;;21.70;99.90;;;22.12;60.76;101385.06;4935423;29;20486;-70
2023/06/10 06:30:33;;;;;;;15.48;10.13;;;21.70;99.90;;;22.43;60.27;101408.84;4935157;29;20150;-70
2023/06/10 06:33:02;;;;;;;18.60;10.30;;;22.00;99.90;;;22.47;61.13;101407.78;4931151;29;20108;-72
2023/06/10 06:35:33;;;;;;;14.95;10.27;;;22.00;99.90;;;22.69;59.46;101410.38;4935103;29;20799;-72
2023/06/10 06:38:09;;;;;;;14.07;10.07;;;22.20;99.90;;;22.86;59.67;101399.72;4935891;29;20523;-71
2023/06/10 06:40:43;;;;;;;15.32;10.10;;;22.40;99.90;;;22.58;58.84;101410.00;4937621;29;20094;-71
2023/06/10 06:43:11;;;;;;;13.52;9.43;;;22.30;99.90;;;22.01;59.10;101284.94;4939032;29;20131;-71
2023/06/10 06:45:57;;;;;;;14.30;9.85;;;22.30;99.90;;;23.03;58.40;101403.38;4936618;29;20490;-72
2023/06/10 06:48:26;;;;;;;16.67;10.77;;;22.50;99.90;;;23.04;58.03;101412.34;4938722;29;20047;-72
2023/06/10 06:50:56;;;;;;;14.52;10.82;;;22.60;99.90;;;22.87;58.14;101412.25;4938534;29;20702;-72
2023/06/10 06:53:24;;;;;;;17.70;10.07;;;22.60;99.90;;;22.72;59.53;101410.25;4938778;29;20054;-71
2023/06/10 06:55:53;;;;;;;19.55;10.13;;;22.40;99.90;;;22.91;58.81;101427.34;4938481;29;20445;-73
2023/06/10 06:58:21;;;;;;;14.23;10.02;;;22.40;99.90;;;22.82;59.47;101414.31;4934798;29;20052;-71
2023/06/10 07:00:50;;;;;;;15.25;10.13;;;22.40;99.90;;;22.52;58.00;101288.91;4938309;29;20075;-73
2023/06/10 07:03:20;;;;;;;15.73;10.05;;;22.70;99.90;;;23.22;58.86;101409.66;4945435;29;20055;-74
2023/06/10 07:05:48;;;;;;;12.90;9.45;;;22.80;99.90;;;23.15;58.59;101413.56;4938266;29;20048;-72
2023/06/10 07:08:16;;;;;;;14.10;10.88;;;22.80;99.90;;;23.17;58.14;101416.22;4938502;29;20059;-73
2023/06/10 07:10:45;;;;;;;18.77;10.90;;;22.80;99.90;;;23.18;57.85;101413.44;4937008;29;20048;-72
2023/06/10 07:13:13;;;;;;;12.70;10.35;;;22.80;99.90;;;23.27;58.27;101425.63;4938244;29;20052;-72
2023/06/10 07:15:42;;;;;;;13.70;10.00;;;22.80;99.90;;;23.46;57.74;101426.50;4938231;29;20185;-70
2023/06/10 07:18:11;;;;;;;14.38;9.95;;;23.00;99.90;;;23.59;56.67;101416.88;4938134;29;20047;-73
2023/06/10 07:20:41;;;;;;;13.52;9.80;;;23.10;99.90;;;23.84;56.50;101430.91;4938078;29;20727;-71
2023/06/10 07:23:09;;;;;;;15.82;10.15;;;23.40;99.90;;;23.68;57.52;101429.91;4935005;29;20477;-72
2023/06/10 07:25:38;;;;;;;15.93;10.35;;;23.30;99.90;;;23.39;56.99;101419.66;4938058;29;20051;-74
2023/06/10 07:28:07;;;;;;;15.05;9.55;;;23.10;99.90;;;23.58;57.69;101420.50;4937790;29;20055;-72
2023/06/10 07:30:35;;;;;;;16.10;9.13;;;23.10;99.90;;;23.72;57.40;101430.63;4937948;29;20103;-71
2023/06/10 07:33:05;;;;;;;15.88;9.85;;;23.30;99.90;;;24.05;56.40;101428.97;4937716;29;20047;-71
2023/06/10 07:35:34;;;;;;;11.77;9.43;;;23.60;99.90;;;24.16;56.87;101437.41;4937831;29;20048;-71
2023/06/10 07:38:04;;;;;;;17.20;9.73;;;23.70;99.90;;;23.78;56.20;101343.88;4937943;29;20071;-72
2023/06/10 07:40:32;;;;;;;13.32;9.02;;;23.90;99.90;;;24.20;55.79;101416.50;4937824;29;20055;-75
2023/06/10 07:43:02;;;;;;;15.70;9.95;;;23.80;99.90;;;24.11;56.15;101421.44;4934151;29;20051;-76
2023/06/10 07:45:31;;;;;;;11.73;8.95;;;23.70;99.90;;;24.24;55.77;101432.47;4936803;29;20051;-75
2023/06/10 07:47:59;;;;;;;11.57;9.48;;;23.80;99.90;;;24.43;53.91;101427.84;4928885;29;20527;-75
2023/06/10 07:50:28;;;;;;;12.55;9.07;;;24.00;99.90;;;24.71;55.20;101427.25;4937535;29;20083;-76
2023/06/10 07:52:56;;;;;;;13.52;9.48;;;24.20;99.90;;;24.83;55.18;101426.66;4944535;29;20048;-75
2023/06/10 07:55:27;;;;;;;13.93;8.27;;;24.40;99.90;;;24.95;53.58;101439.53;4937546;29;20047;-76
2023/06/10 07:57:55;;;;;;;14.15;8.93;;;24.60;99.90;;;24.68;53.74;101408.50;4936404;29;20618;-74
2023/06/10 08:00:24;;;;;;;12.35;9.30;;;24.40;99.90;;;25.00;53.27;101430.19;4936337;29;20059;-76
2023/06/10 08:02:53;;;;;;;14.05;8.90;;;24.50;99.90;;;25.28;51.91;101429.50;4937338;29;20485;-76
2023/06/10 08:05:21;;;;;;;13.13;8.23;;;24.80;99.90;;;25.30;51.50;101400.50;4933688;29;20091;-73
2023/06/10 08:07:50;;;;;;;14.82;9.27;;;25.00;99.90;;;25.42;50.72;101443.19;4935912;29;20047;-64
2023/06/10 08:10:19;;;;;;;13.15;8.75;;;25.00;99.90;;;25.55;50.85;101427.09;4937176;29;20043;-64
2023/06/10 08:12:49;;;;;;;10.57;8.98;;;25.10;99.90;;;25.14;52.18;101432.13;4936889;29;20103;-63
2023/06/10 08:15:17;;;;;;;10.40;8.48;;;24.80;99.90;;;25.36;50.73;101440.78;4937054;29;20370;-64
2023/06/10 08:17:46;;;;;;;12.77;9.30;;;24.90;99.90;;;25.56;50.18;101416.19;4937022;29;20102;-64
2023/06/10 08:20:14;;;;;;;10.65;8.07;;;25.10;99.90;;;25.87;50.03;101435.13;4936991;29;20047;-63
2023/06/10 08:22:43;;;;;;;12.32;8.30;;;25.40;99.90;;;26.18;49.46;101436.91;4936939;29;20047;-64
2023/06/10 08:25:11;;;;;;;17.00;8.77;;;25.70;99.90;;;25.95;50.52;101450.94;4937008;29;20122;-64
2023/06/10 08:27:40;;;;;;;11.32;8.68;;;25.60;99.90;;;25.93;49.79;101450.16;4937045;29;20052;-63
2023/06/10 08:30:12;;;;;;;14.05;8.77;;;25.60;99.90;;;25.69;50.08;101441.59;4933195;29;20085;-64
2023/06/10 08:32:41;;;;;;;12.43;8.18;;;25.30;99.90;;;26.13;49.19;101447.16;4935731;29;20062;-64
2023/06/10 08:35:10;;;;;;;9.80;7.53;;;25.60;99.90;;;26.06;47.62;101453.03;4936664;29;20044;-64
2023/06/10 08:37:38;;;;;;;11.85;8.55;;;25.70;99.90;;;25.79;49.04;101425.66;4936675;29;20043;-64
2023/06/10 08:40:09;;;;;;;11.07;8.32;;;25.60;99.90;;;25.73;48.41;101445.00;4927881;29;20397;-64
2023/06/10 08:42:44;;;;;;;12.98;8.43;;;25.30;99.90;;;25.68;49.03;101450.72;4936570;29;20410;-63
2023/06/10 08:45:19;;;;;;;10.57;8.20;;;25.20;99.90;;;26.14;48.47;101448.03;4933125;29;20044;-64
2023/06/10 08:47:52;;;;;;;14.55;8.18;;;25.60;99.90;;;26.33;46.92;101454.97;4936534;29;20055;-65
2023/06/10 08:50:22;;;;;;;9.88;7.97;;;25.80;99.90;;;26.44;46.60;101455.19;4935384;29;20079;-63
2023/06/10 08:52:55;;;;;;;11.10;7.88;;;26.00;99.90;;;26.34;46.82;101461.28;4935379;29;20048;-63
2023/06/10 08:55:31;;;;;;;10.77;8.23;;;26.00;99.90;;;26.48;47.40;101455.91;4927649;29;20052;-64
2023/06/10 08:58:01;;;;;;;11.98;7.90;;;25.90;99.90;;;26.64;46.74;101465.72;4936205;29;20052;-64
2023/06/10 09:00:33;;;;;;;12.95;8.02;;;26.20;99.90;;;26.45;46.88;101410.81;4943406;29;20043;-64
2023/06/10 09:03:03;;;;;;;11.45;7.70;;;26.20;99.90;;;26.91;45.59;101468.59;4936344;29;20497;-64
2023/06/10 09:05:36;;;;;;;10.90;7.85;;;26.40;99.90;;;26.80;47.48;101471.09;4936415;29;20043;-64
2023/06/10 09:08:07;;;;;;;9.77;8.52;;;26.40;99.90;;;26.56;46.95;101446.31;4933445;29;20055;-64
2023/06/10 09:10:35;;;;;;;;;;;26.30;99.90;;;26.63;45.98;101458.56;4935393;29;20055;-65
2023/06/10 09:13:03;;;;;;;10.40;7.97;;;26.20;99.90;;;26.59;46.49;101440.72;4936096;29;19923;-64
2023/06/10 09:15:33;;;;;;;9.35;7.32;;;26.10;99.90;;;27.08;46.01;101454.81;4935946;29;20147;-63
2023/06/10 09:18:02;;;;;;;10.55;7.88;;;26.50;99.90;;;27.37;44.20;101463.88;4934935;29;20051;-64
2023/06/10 09:20:30;;;;;;;12.50;7.68;;;26.90;99.90;;;27.36;44.42;101459.41;4936091;29;20056;-64
2023/06/10 09:23:00;;;;;;;10.25;7.82;;;26.90;99.90;;;26.47;45.19;101362.75;4936286;29;20055;-64
2023/06/10 09:25:37;;;;;;;8.85;7.38;;;26.70;99.90;;;26.90;45.50;101460.53;4915667;29;20391;-64
2023/06/10 09:28:14;;;;;;;10.98;7.18;;;26.50;99.90;;;26.78;44.99;101456.75;4933545;29;20059;-64
2023/06/10 09:30:44;;;;;;;12.38;7.43;;;26.40;99.90;;;27.12;46.59;101459.06;4935930;29;20054;-64
2023/06/10 09:33:15;;;;;;;10.43;7.55;;;26.50;99.90;;;27.23;44.84;101467.44;4935731;29;20667;-65
2023/06/10 09:35:49;;;;;;;8.50;7.50;;;26.70;99.90;;;27.35;45.36;101461.22;4932324;29;20054;-64
2023/06/10 09:38:22;;;;;;;9.07;7.05;;;26.90;99.90;;;27.32;42.83;101460.53;4935597;29;20103;-64
2023/06/10 09:40:52;;;;;;;10.93;7.50;;;26.90;99.90;;;26.80;43.35;101346.19;4936130;29;20078;-65
2023/06/10 09:43:21;;;;;;;10.38;7.25;;;26.90;99.90;;;27.18;43.37;101458.69;4935859;29;20147;-64
2023/06/10 09:45:52;;;;;;;11.32;7.32;;;26.80;99.90;;;27.38;43.17;101447.47;4935582;29;20482;-63
2023/06/10 09:48:22;;;;;;;11.52;7.90;;;27.00;99.90;;;27.88;41.95;101451.38;4935503;29;20059;-64
2023/06/10 09:50:50;;;;;;;9.27;7.18;;;27.40;99.90;;;27.70;43.33;101455.34;4935665;29;20050;-64
2023/06/10 09:53:19;;;;;;;14.05;7.07;;;27.40;99.90;;;27.63;44.74;101452.16;4935415;29;20050;-64
2023/06/10 09:55:47;;;;;;;11.43;7.68;;;27.20;99.90;;;27.56;42.28;101451.66;4935757;29;20052;-64
2023/06/10 09:58:18;;;;;;;9.98;7.75;;;27.20;99.90;;;27.70;43.32;101450.75;4935278;29;20103;-64
2023/06/10 10:00:55;;;;;;;8.85;7.40;;;27.20;99.90;;;27.58;43.12;101463.31;4935692;29;20071;-64
2023/06/10 10:03:24;;;;;;;8.82;7.55;;;27.20;99.90;;;27.56;43.63;101454.38;4932306;29;20055;-64
2023/06/10 10:06:00;;;;;;;10.73;7.68;;;27.10;99.90;;;27.69;43.28;101468.06;4935265;29;20106;-64
2023/06/10 10:08:29;;;;;;;10.43;7.38;;;27.20;99.90;;;27.68;44.02;101469.91;4934793;29;20055;-66
2023/06/10 10:10:59;;;;;;;10.88;7.13;;;27.20;99.90;;;27.72;42.43;101453.41;4935309;29;20055;-65
2023/06/10 10:13:28;;;;;;;9.68;7.00;;;27.20;99.90;;;27.76;41.77;101452.22;4935162;29;20052;-65
2023/06/10 10:16:05;;;;;;;9.73;7.45;;;27.30;99.90;;;27.43;42.32;101384.63;4935154;29;20056;-64